sensor_id;sensor_type;location;lat;lon;timestamp;P1;durP1;ratioP1;P2;durP2;ratioP2
4391;SDS011;2210;51.938;8.488;2023-02-23T00:01:34;23.57;;;18.80;;
4391;SDS011;2210;51.938;8.488;2023-02-23T00:05:38;23.13;;;19.13;;
4391;SDS011;2210;51.938;8.488;2023-02-23T00:09:45;22.90;;;19.57;;
4391;SDS011;2210;51.938;8.488;2023-02-23T00:13:46;25.10;;;20.70;;
4391;SDS011;2210;51.938;8.488;2023-02-23T00:18:06;25.50;;;20.97;;
4391;SDS011;2210;51.938;8.488;2023-02-23T00:22:11;30.23;;;23.10;;
4391;SDS011;2210;51.938;8.488;2023-02-23T00:26:11;27.87;;;23.27;;
4391;SDS011;2210;51.938;8.488;2023-02-23T00:30:17;28.10;;;22.37;;
4391;SDS011;2210;51.938;8.488;2023-02-23T00:34:18;27.50;;;21.83;;
4391;SDS011;2210;51.938;8.488;2023-02-23T00:38:29;32.30;;;24.87;;
4391;SDS011;2210;51.938;8.488;2023-02-23T00:42:35;30.60;;;25.90;;
4391;SDS011;2210;51.938;8.488;2023-02-23T00:46:35;29.93;;;23.17;;
4391;SDS011;2210;51.938;8.488;2023-02-23T00:50:38;28.80;;;25.33;;
4391;SDS011;2210;51.938;8.488;2023-02-23T00:54:40;29.10;;;23.67;;
4391;SDS011;2210;51.938;8.488;2023-02-23T00:58:41;30.30;;;25.30;;
4391;SDS011;2210;51.938;8.488;2023-02-23T01:02:57;29.60;;;23.80;;
4391;SDS011;2210;51.938;8.488;2023-02-23T01:25:33;28.83;;;24.43;;
4391;SDS011;2210;51.938;8.488;2023-02-23T01:29:42;32.23;;;25.37;;
4391;SDS011;2210;51.938;8.488;2023-02-23T01:33:55;32.53;;;25.17;;
4391;SDS011;2210;51.938;8.488;2023-02-23T01:37:57;29.97;;;24.47;;
4391;SDS011;2210;51.938;8.488;2023-02-23T01:41:58;29.90;;;24.77;;
4391;SDS011;2210;51.938;8.488;2023-02-23T01:46:02;31.70;;;24.40;;
4391;SDS011;2210;51.938;8.488;2023-02-23T01:50:02;30.00;;;24.97;;
4391;SDS011;2210;51.938;8.488;2023-02-23T01:54:11;31.23;;;24.83;;
4391;SDS011;2210;51.938;8.488;2023-02-23T01:58:16;31.87;;;24.47;;
4391;SDS011;2210;51.938;8.488;2023-02-23T02:02:20;31.10;;;26.70;;
4391;SDS011;2210;51.938;8.488;2023-02-23T02:06:23;32.90;;;25.33;;
4391;SDS011;2210;51.938;8.488;2023-02-23T02:10:30;29.93;;;26.50;;
4391;SDS011;2210;51.938;8.488;2023-02-23T02:14:39;30.30;;;25.60;;
4391;SDS011;2210;51.938;8.488;2023-02-23T02:27:49;32.20;;;25.50;;
4391;SDS011;2210;51.938;8.488;2023-02-23T02:41:18;32.30;;;25.07;;
4391;SDS011;2210;51.938;8.488;2023-02-23T02:45:33;29.80;;;25.17;;
4391;SDS011;2210;51.938;8.488;2023-02-23T02:54:37;34.40;;;27.60;;
4391;SDS011;2210;51.938;8.488;2023-02-23T02:58:42;32.90;;;27.23;;
4391;SDS011;2210;51.938;8.488;2023-02-23T03:02:43;38.40;;;28.30;;
4391;SDS011;2210;51.938;8.488;2023-02-23T03:12:04;31.50;;;26.57;;
4391;SDS011;2210;51.938;8.488;2023-02-23T03:21:03;29.87;;;25.60;;
4391;SDS011;2210;51.938;8.488;2023-02-23T03:25:48;28.67;;;25.00;;
4391;SDS011;2210;51.938;8.488;2023-02-23T03:30:29;32.47;;;26.10;;
4391;SDS011;2210;51.938;8.488;2023-02-23T03:35:04;31.17;;;25.60;;
4391;SDS011;2210;51.938;8.488;2023-02-23T03:39:30;30.13;;;25.07;;
4391;SDS011;2210;51.938;8.488;2023-02-23T03:44:01;31.27;;;25.50;;
4391;SDS011;2210;51.938;8.488;2023-02-23T03:48:34;31.10;;;25.60;;
4391;SDS011;2210;51.938;8.488;2023-02-23T03:52:57;32.23;;;25.60;;
4391;SDS011;2210;51.938;8.488;2023-02-23T03:57:19;27.77;;;24.83;;
4391;SDS011;2210;51.938;8.488;2023-02-23T04:01:42;33.47;;;24.90;;
4391;SDS011;2210;51.938;8.488;2023-02-23T04:06:08;27.00;;;23.60;;
4391;SDS011;2210;51.938;8.488;2023-02-23T04:10:34;28.97;;;24.50;;
4391;SDS011;2210;51.938;8.488;2023-02-23T04:15:10;26.80;;;22.97;;
4391;SDS011;2210;51.938;8.488;2023-02-23T04:19:17;27.77;;;24.37;;
4391;SDS011;2210;51.938;8.488;2023-02-23T04:23:17;29.77;;;25.13;;
4391;SDS011;2210;51.938;8.488;2023-02-23T04:27:18;31.07;;;25.70;;
4391;SDS011;2210;51.938;8.488;2023-02-23T04:31:18;28.90;;;23.30;;
4391;SDS011;2210;51.938;8.488;2023-02-23T04:35:25;29.30;;;24.60;;
4391;SDS011;2210;51.938;8.488;2023-02-23T04:39:27;28.10;;;24.20;;
4391;SDS011;2210;51.938;8.488;2023-02-23T04:43:27;30.70;;;25.57;;
4391;SDS011;2210;51.938;8.488;2023-02-23T04:47:28;27.30;;;24.10;;
4391;SDS011;2210;51.938;8.488;2023-02-23T04:51:28;25.07;;;22.23;;
4391;SDS011;2210;51.938;8.488;2023-02-23T04:55:31;31.20;;;24.47;;
4391;SDS011;2210;51.938;8.488;2023-02-23T04:59:34;32.30;;;26.57;;
4391;SDS011;2210;51.938;8.488;2023-02-23T05:03:35;33.83;;;24.50;;
4391;SDS011;2210;51.938;8.488;2023-02-23T05:07:35;30.77;;;25.80;;
4391;SDS011;2210;51.938;8.488;2023-02-23T05:11:36;28.33;;;24.33;;
4391;SDS011;2210;51.938;8.488;2023-02-23T05:15:40;29.00;;;23.93;;
4391;SDS011;2210;51.938;8.488;2023-02-23T05:19:43;26.37;;;23.57;;
4391;SDS011;2210;51.938;8.488;2023-02-23T05:23:43;27.33;;;24.43;;
4391;SDS011;2210;51.938;8.488;2023-02-23T05:27:46;26.00;;;22.63;;
4391;SDS011;2210;51.938;8.488;2023-02-23T05:31:53;30.30;;;25.83;;
4391;SDS011;2210;51.938;8.488;2023-02-23T05:35:53;30.57;;;24.13;;
4391;SDS011;2210;51.938;8.488;2023-02-23T05:39:53;27.48;;;24.48;;
4391;SDS011;2210;51.938;8.488;2023-02-23T05:43:54;30.87;;;24.63;;
4391;SDS011;2210;51.938;8.488;2023-02-23T05:47:54;28.90;;;24.40;;
4391;SDS011;2210;51.938;8.488;2023-02-23T05:51:55;25.93;;;21.13;;
4391;SDS011;2210;51.938;8.488;2023-02-23T05:56:12;28.70;;;24.57;;
4391;SDS011;2210;51.938;8.488;2023-02-23T06:00:19;28.67;;;25.07;;
4391;SDS011;2210;51.938;8.488;2023-02-23T06:04:19;30.37;;;24.73;;
4391;SDS011;2210;51.938;8.488;2023-02-23T06:08:21;30.50;;;26.30;;
4391;SDS011;2210;51.938;8.488;2023-02-23T06:12:23;33.53;;;28.20;;
4391;SDS011;2210;51.938;8.488;2023-02-23T06:16:36;31.80;;;26.23;;
4391;SDS011;2210;51.938;8.488;2023-02-23T06:20:37;33.20;;;26.50;;
4391;SDS011;2210;51.938;8.488;2023-02-23T06:24:37;34.47;;;28.03;;
4391;SDS011;2210;51.938;8.488;2023-02-23T06:28:40;32.60;;;26.83;;
4391;SDS011;2210;51.938;8.488;2023-02-23T06:32:41;31.83;;;26.87;;
4391;SDS011;2210;51.938;8.488;2023-02-23T06:36:44;33.10;;;26.40;;
4391;SDS011;2210;51.938;8.488;2023-02-23T06:40:47;34.37;;;28.00;;
4391;SDS011;2210;51.938;8.488;2023-02-23T06:44:48;33.60;;;28.40;;
4391;SDS011;2210;51.938;8.488;2023-02-23T06:48:48;36.20;;;27.50;;
4391;SDS011;2210;51.938;8.488;2023-02-23T06:52:48;32.63;;;26.98;;
4391;SDS011;2210;51.938;8.488;2023-02-23T06:56:49;37.97;;;28.17;;
4391;SDS011;2210;51.938;8.488;2023-02-23T07:00:49;32.70;;;25.80;;
4391;SDS011;2210;51.938;8.488;2023-02-23T07:04:49;31.97;;;26.50;;
4391;SDS011;2210;51.938;8.488;2023-02-23T07:08:50;36.20;;;26.13;;
4391;SDS011;2210;51.938;8.488;2023-02-23T07:12:51;45.63;;;34.77;;
4391;SDS011;2210;51.938;8.488;2023-02-23T07:16:53;36.23;;;27.90;;
4391;SDS011;2210;51.938;8.488;2023-02-23T07:20:59;38.03;;;29.20;;
4391;SDS011;2210;51.938;8.488;2023-02-23T07:25:02;50.63;;;32.87;;
4391;SDS011;2210;51.938;8.488;2023-02-23T07:29:03;38.83;;;29.87;;
4391;SDS011;2210;51.938;8.488;2023-02-23T07:33:05;42.03;;;31.20;;
4391;SDS011;2210;51.938;8.488;2023-02-23T07:37:18;49.67;;;32.40;;
4391;SDS011;2210;51.938;8.488;2023-02-23T07:41:18;47.10;;;33.37;;
4391;SDS011;2210;51.938;8.488;2023-02-23T07:45:20;50.83;;;34.20;;
4391;SDS011;2210;51.938;8.488;2023-02-23T07:49:22;43.20;;;31.60;;
4391;SDS011;2210;51.938;8.488;2023-02-23T07:53:22;42.08;;;32.80;;
4391;SDS011;2210;51.938;8.488;2023-02-23T07:57:23;51.87;;;34.90;;
4391;SDS011;2210;51.938;8.488;2023-02-23T08:01:23;46.20;;;33.77;;
4391;SDS011;2210;51.938;8.488;2023-02-23T08:05:27;51.83;;;35.37;;
4391;SDS011;2210;51.938;8.488;2023-02-23T08:09:27;53.53;;;37.37;;
4391;SDS011;2210;51.938;8.488;2023-02-23T08:13:35;59.03;;;38.80;;
4391;SDS011;2210;51.938;8.488;2023-02-23T08:17:36;53.90;;;38.37;;
4391;SDS011;2210;51.938;8.488;2023-02-23T08:21:37;54.90;;;37.57;;
4391;SDS011;2210;51.938;8.488;2023-02-23T08:25:40;58.30;;;37.77;;
4391;SDS011;2210;51.938;8.488;2023-02-23T08:29:40;53.43;;;37.93;;
4391;SDS011;2210;51.938;8.488;2023-02-23T08:33:41;54.57;;;37.70;;
4391;SDS011;2210;51.938;8.488;2023-02-23T08:37:47;54.80;;;38.42;;
4391;SDS011;2210;51.938;8.488;2023-02-23T08:41:50;53.23;;;38.07;;
4391;SDS011;2210;51.938;8.488;2023-02-23T08:46:00;59.67;;;40.20;;
4391;SDS011;2210;51.938;8.488;2023-02-23T08:50:00;55.57;;;37.80;;
4391;SDS011;2210;51.938;8.488;2023-02-23T08:54:01;61.73;;;37.70;;
4391;SDS011;2210;51.938;8.488;2023-02-23T08:58:01;54.87;;;38.23;;
4391;SDS011;2210;51.938;8.488;2023-02-23T09:02:01;55.97;;;37.70;;
4391;SDS011;2210;51.938;8.488;2023-02-23T09:06:07;55.47;;;37.83;;
4391;SDS011;2210;51.938;8.488;2023-02-23T09:10:25;60.63;;;37.70;;
4391;SDS011;2210;51.938;8.488;2023-02-23T09:14:30;48.80;;;34.93;;
4391;SDS011;2210;51.938;8.488;2023-02-23T09:18:35;50.23;;;35.33;;
4391;SDS011;2210;51.938;8.488;2023-02-23T09:22:35;50.60;;;36.27;;
4391;SDS011;2210;51.938;8.488;2023-02-23T09:26:36;50.87;;;33.57;;
4391;SDS011;2210;51.938;8.488;2023-02-23T09:30:39;55.00;;;37.67;;
4391;SDS011;2210;51.938;8.488;2023-02-23T09:34:41;55.43;;;36.97;;
4391;SDS011;2210;51.938;8.488;2023-02-23T09:38:45;51.08;;;36.65;;
4391;SDS011;2210;51.938;8.488;2023-02-23T09:42:51;55.93;;;36.07;;
4391;SDS011;2210;51.938;8.488;2023-02-23T09:47:04;54.03;;;38.17;;
4391;SDS011;2210;51.938;8.488;2023-02-23T09:51:17;55.63;;;37.57;;
4391;SDS011;2210;51.938;8.488;2023-02-23T09:55:20;53.60;;;37.67;;
4391;SDS011;2210;51.938;8.488;2023-02-23T09:59:21;55.30;;;37.27;;
4391;SDS011;2210;51.938;8.488;2023-02-23T10:07:41;54.10;;;36.53;;
4391;SDS011;2210;51.938;8.488;2023-02-23T10:15:56;48.50;;;34.80;;
4391;SDS011;2210;51.938;8.488;2023-02-23T10:24:21;43.63;;;34.17;;
4391;SDS011;2210;51.938;8.488;2023-02-23T10:28:32;44.67;;;33.27;;
4391;SDS011;2210;51.938;8.488;2023-02-23T10:32:39;42.80;;;31.80;;
4391;SDS011;2210;51.938;8.488;2023-02-23T10:36:54;47.87;;;32.63;;
4391;SDS011;2210;51.938;8.488;2023-02-23T10:40:58;40.23;;;31.07;;
4391;SDS011;2210;51.938;8.488;2023-02-23T10:45:00;43.73;;;32.53;;
4391;SDS011;2210;51.938;8.488;2023-02-23T10:49:00;42.67;;;30.80;;
4391;SDS011;2210;51.938;8.488;2023-02-23T10:53:12;37.73;;;29.27;;
4391;SDS011;2210;51.938;8.488;2023-02-23T11:01:31;41.67;;;31.35;;
4391;SDS011;2210;51.938;8.488;2023-02-23T11:05:44;32.67;;;27.37;;
4391;SDS011;2210;51.938;8.488;2023-02-23T11:09:49;37.93;;;30.40;;
4391;SDS011;2210;51.938;8.488;2023-02-23T11:13:53;34.47;;;29.67;;
4391;SDS011;2210;51.938;8.488;2023-02-23T11:18:03;34.67;;;28.37;;
4391;SDS011;2210;51.938;8.488;2023-02-23T11:22:04;34.73;;;27.97;;
4391;SDS011;2210;51.938;8.488;2023-02-23T11:30:40;31.73;;;23.37;;
4391;SDS011;2210;51.938;8.488;2023-02-23T11:34:41;30.67;;;25.47;;
4391;SDS011;2210;51.938;8.488;2023-02-23T11:38:43;30.40;;;23.80;;
4391;SDS011;2210;51.938;8.488;2023-02-23T11:42:52;30.77;;;23.93;;
4391;SDS011;2210;51.938;8.488;2023-02-23T11:47:17;30.60;;;24.27;;
4391;SDS011;2210;51.938;8.488;2023-02-23T11:51:25;24.50;;;21.57;;
4391;SDS011;2210;51.938;8.488;2023-02-23T11:55:37;27.00;;;21.20;;
4391;SDS011;2210;51.938;8.488;2023-02-23T11:59:38;27.30;;;22.50;;
4391;SDS011;2210;51.938;8.488;2023-02-23T12:03:46;29.57;;;23.27;;
4391;SDS011;2210;51.938;8.488;2023-02-23T12:12:16;27.90;;;22.20;;
4391;SDS011;2210;51.938;8.488;2023-02-23T12:16:25;33.50;;;24.80;;
4391;SDS011;2210;51.938;8.488;2023-02-23T12:20:39;32.77;;;24.17;;
4391;SDS011;2210;51.938;8.488;2023-02-23T12:24:46;31.73;;;23.60;;
4391;SDS011;2210;51.938;8.488;2023-02-23T12:28:56;33.10;;;24.30;;
4391;SDS011;2210;51.938;8.488;2023-02-23T12:37:36;25.33;;;19.93;;
4391;SDS011;2210;51.938;8.488;2023-02-23T12:41:42;29.03;;;21.93;;
4391;SDS011;2210;51.938;8.488;2023-02-23T12:45:51;30.83;;;23.17;;
4391;SDS011;2210;51.938;8.488;2023-02-23T12:54:32;34.93;;;23.30;;
4391;SDS011;2210;51.938;8.488;2023-02-23T13:02:46;29.87;;;23.47;;
4391;SDS011;2210;51.938;8.488;2023-02-23T13:07:17;31.43;;;21.20;;
4391;SDS011;2210;51.938;8.488;2023-02-23T13:15:41;28.07;;;20.43;;
4391;SDS011;2210;51.938;8.488;2023-02-23T13:19:52;29.20;;;20.80;;
4391;SDS011;2210;51.938;8.488;2023-02-23T13:24:09;27.63;;;19.73;;
4391;SDS011;2210;51.938;8.488;2023-02-23T13:28:14;28.37;;;18.90;;
4391;SDS011;2210;51.938;8.488;2023-02-23T13:32:20;28.77;;;19.73;;
4391;SDS011;2210;51.938;8.488;2023-02-23T13:36:28;32.53;;;20.70;;
4391;SDS011;2210;51.938;8.488;2023-02-23T13:40:33;27.43;;;18.27;;
4391;SDS011;2210;51.938;8.488;2023-02-23T13:57:42;20.17;;;14.50;;
4391;SDS011;2210;51.938;8.488;2023-02-23T14:01:44;20.43;;;14.20;;
4391;SDS011;2210;51.938;8.488;2023-02-23T14:05:48;20.60;;;13.67;;
4391;SDS011;2210;51.938;8.488;2023-02-23T14:09:58;21.30;;;13.57;;
4391;SDS011;2210;51.938;8.488;2023-02-23T14:14:05;18.07;;;13.53;;
4391;SDS011;2210;51.938;8.488;2023-02-23T14:22:21;17.30;;;12.17;;
4391;SDS011;2210;51.938;8.488;2023-02-23T14:31:17;12.80;;;10.13;;
4391;SDS011;2210;51.938;8.488;2023-02-23T14:35:37;18.13;;;11.13;;
4391;SDS011;2210;51.938;8.488;2023-02-23T14:39:43;16.03;;;9.67;;
4391;SDS011;2210;51.938;8.488;2023-02-23T14:43:46;18.30;;;11.33;;
4391;SDS011;2210;51.938;8.488;2023-02-23T14:47:52;14.23;;;9.40;;
4391;SDS011;2210;51.938;8.488;2023-02-23T14:56:44;13.07;;;10.23;;
4391;SDS011;2210;51.938;8.488;2023-02-23T15:00:46;16.10;;;9.80;;
4391;SDS011;2210;51.938;8.488;2023-02-23T15:04:51;12.33;;;9.13;;
4391;SDS011;2210;51.938;8.488;2023-02-23T15:08:57;15.13;;;9.40;;
4391;SDS011;2210;51.938;8.488;2023-02-23T15:12:58;12.90;;;8.77;;
4391;SDS011;2210;51.938;8.488;2023-02-23T15:17:03;14.50;;;9.50;;
4391;SDS011;2210;51.938;8.488;2023-02-23T15:21:11;13.83;;;8.80;;
4391;SDS011;2210;51.938;8.488;2023-02-23T15:25:16;14.33;;;9.90;;
4391;SDS011;2210;51.938;8.488;2023-02-23T15:33:37;12.83;;;8.53;;
4391;SDS011;2210;51.938;8.488;2023-02-23T15:37:50;11.77;;;8.30;;
4391;SDS011;2210;51.938;8.488;2023-02-23T15:41:50;14.73;;;9.63;;
4391;SDS011;2210;51.938;8.488;2023-02-23T15:45:51;10.90;;;7.87;;
4391;SDS011;2210;51.938;8.488;2023-02-23T15:50:06;11.50;;;8.60;;
4391;SDS011;2210;51.938;8.488;2023-02-23T15:54:21;12.67;;;8.17;;
4391;SDS011;2210;51.938;8.488;2023-02-23T15:58:27;10.80;;;8.00;;
4391;SDS011;2210;51.938;8.488;2023-02-23T16:02:30;12.93;;;9.30;;
4391;SDS011;2210;51.938;8.488;2023-02-23T16:06:38;11.70;;;8.60;;
4391;SDS011;2210;51.938;8.488;2023-02-23T16:15:25;11.17;;;7.10;;
4391;SDS011;2210;51.938;8.488;2023-02-23T16:19:34;13.53;;;8.83;;
4391;SDS011;2210;51.938;8.488;2023-02-23T16:23:43;13.30;;;9.00;;
4391;SDS011;2210;51.938;8.488;2023-02-23T16:27:49;13.37;;;8.87;;
4391;SDS011;2210;51.938;8.488;2023-02-23T16:31:56;17.80;;;9.73;;
4391;SDS011;2210;51.938;8.488;2023-02-23T16:36:16;17.87;;;11.63;;
4391;SDS011;2210;51.938;8.488;2023-02-23T16:40:28;22.70;;;12.07;;
4391;SDS011;2210;51.938;8.488;2023-02-23T16:44:32;20.20;;;12.67;;
4391;SDS011;2210;51.938;8.488;2023-02-23T16:48:35;23.30;;;14.70;;
4391;SDS011;2210;51.938;8.488;2023-02-23T16:52:45;21.50;;;13.90;;
4391;SDS011;2210;51.938;8.488;2023-02-23T16:56:50;29.20;;;16.60;;
4391;SDS011;2210;51.938;8.488;2023-02-23T17:01:12;23.47;;;14.60;;
4391;SDS011;2210;51.938;8.488;2023-02-23T17:05:18;25.97;;;16.50;;
4391;SDS011;2210;51.938;8.488;2023-02-23T17:09:25;26.03;;;16.10;;
4391;SDS011;2210;51.938;8.488;2023-02-23T17:13:26;25.33;;;15.30;;
4391;SDS011;2210;51.938;8.488;2023-02-23T17:17:43;27.23;;;15.67;;
4391;SDS011;2210;51.938;8.488;2023-02-23T17:21:44;31.20;;;16.40;;
4391;SDS011;2210;51.938;8.488;2023-02-23T17:25:45;26.97;;;15.17;;
4391;SDS011;2210;51.938;8.488;2023-02-23T17:29:45;26.17;;;14.80;;
4391;SDS011;2210;51.938;8.488;2023-02-23T17:33:45;22.00;;;13.75;;
4391;SDS011;2210;51.938;8.488;2023-02-23T17:37:49;22.40;;;12.57;;
4391;SDS011;2210;51.938;8.488;2023-02-23T17:41:55;24.13;;;13.60;;
4391;SDS011;2210;51.938;8.488;2023-02-23T17:46:03;22.43;;;12.63;;
4391;SDS011;2210;51.938;8.488;2023-02-23T17:50:18;20.13;;;12.57;;
4391;SDS011;2210;51.938;8.488;2023-02-23T17:54:28;21.63;;;14.33;;
4391;SDS011;2210;51.938;8.488;2023-02-23T17:58:32;29.03;;;13.70;;
4391;SDS011;2210;51.938;8.488;2023-02-23T18:02:42;29.97;;;14.70;;
4391;SDS011;2210;51.938;8.488;2023-02-23T18:06:43;21.73;;;13.30;;
4391;SDS011;2210;51.938;8.488;2023-02-23T18:10:46;19.70;;;13.07;;
4391;SDS011;2210;51.938;8.488;2023-02-23T18:14:48;18.80;;;12.07;;
4391;SDS011;2210;51.938;8.488;2023-02-23T18:18:55;22.50;;;11.93;;
4391;SDS011;2210;51.938;8.488;2023-02-23T18:22:56;19.73;;;12.57;;
4391;SDS011;2210;51.938;8.488;2023-02-23T18:27:03;18.95;;;12.30;;
4391;SDS011;2210;51.938;8.488;2023-02-23T18:31:03;22.77;;;13.40;;
4391;SDS011;2210;51.938;8.488;2023-02-23T18:35:04;19.80;;;13.17;;
4391;SDS011;2210;51.938;8.488;2023-02-23T18:39:17;20.73;;;13.50;;
4391;SDS011;2210;51.938;8.488;2023-02-23T18:43:18;20.50;;;12.33;;
4391;SDS011;2210;51.938;8.488;2023-02-23T18:47:18;22.15;;;12.77;;
4391;SDS011;2210;51.938;8.488;2023-02-23T18:51:21;21.00;;;13.00;;
4391;SDS011;2210;51.938;8.488;2023-02-23T18:55:22;19.77;;;12.70;;
4391;SDS011;2210;51.938;8.488;2023-02-23T18:59:22;19.40;;;13.10;;
4391;SDS011;2210;51.938;8.488;2023-02-23T19:03:23;20.60;;;12.48;;
4391;SDS011;2210;51.938;8.488;2023-02-23T19:07:23;22.00;;;14.20;;
4391;SDS011;2210;51.938;8.488;2023-02-23T19:11:39;23.08;;;13.15;;
4391;SDS011;2210;51.938;8.488;2023-02-23T19:15:47;22.17;;;13.80;;
4391;SDS011;2210;51.938;8.488;2023-02-23T19:19:48;25.40;;;14.60;;
4391;SDS011;2210;51.938;8.488;2023-02-23T19:23:52;26.50;;;15.10;;
4391;SDS011;2210;51.938;8.488;2023-02-23T19:27:59;26.67;;;14.60;;
4391;SDS011;2210;51.938;8.488;2023-02-23T19:31:59;27.10;;;15.30;;
4391;SDS011;2210;51.938;8.488;2023-02-23T19:36:04;24.13;;;14.10;;
4391;SDS011;2210;51.938;8.488;2023-02-23T19:40:05;24.87;;;15.27;;
4391;SDS011;2210;51.938;8.488;2023-02-23T19:44:06;24.87;;;15.00;;
4391;SDS011;2210;51.938;8.488;2023-02-23T19:48:09;26.37;;;16.00;;
4391;SDS011;2210;51.938;8.488;2023-02-23T19:52:25;25.97;;;14.93;;
4391;SDS011;2210;51.938;8.488;2023-02-23T19:56:27;24.60;;;15.00;;
4391;SDS011;2210;51.938;8.488;2023-02-23T20:00:43;28.83;;;16.60;;
4391;SDS011;2210;51.938;8.488;2023-02-23T20:04:46;26.40;;;14.93;;
4391;SDS011;2210;51.938;8.488;2023-02-23T20:08:51;24.57;;;15.67;;
4391;SDS011;2210;51.938;8.488;2023-02-23T20:12:54;27.33;;;15.60;;
4391;SDS011;2210;51.938;8.488;2023-02-23T20:16:54;24.10;;;13.30;;
4391;SDS011;2210;51.938;8.488;2023-02-23T20:20:55;26.50;;;13.52;;
4391;SDS011;2210;51.938;8.488;2023-02-23T20:24:55;14.00;;;8.45;;
4391;SDS011;2210;51.938;8.488;2023-02-23T20:28:56;8.57;;;4.57;;
4391;SDS011;2210;51.938;8.488;2023-02-23T20:32:57;6.93;;;4.20;;
4391;SDS011;2210;51.938;8.488;2023-02-23T20:37:06;6.80;;;4.37;;
4391;SDS011;2210;51.938;8.488;2023-02-23T20:41:09;6.27;;;4.53;;
4391;SDS011;2210;51.938;8.488;2023-02-23T20:45:10;7.10;;;4.30;;
4391;SDS011;2210;51.938;8.488;2023-02-23T20:49:15;12.57;;;4.13;;
4391;SDS011;2210;51.938;8.488;2023-02-23T20:53:17;15.47;;;5.10;;
4391;SDS011;2210;51.938;8.488;2023-02-23T20:57:17;9.57;;;3.97;;
4391;SDS011;2210;51.938;8.488;2023-02-23T21:01:19;8.50;;;4.40;;
4391;SDS011;2210;51.938;8.488;2023-02-23T21:05:37;14.70;;;4.27;;
4391;SDS011;2210;51.938;8.488;2023-02-23T21:09:42;13.13;;;4.93;;
4391;SDS011;2210;51.938;8.488;2023-02-23T21:13:42;10.33;;;4.50;;
4391;SDS011;2210;51.938;8.488;2023-02-23T21:17:43;17.90;;;5.50;;
4391;SDS011;2210;51.938;8.488;2023-02-23T21:21:52;15.30;;;4.90;;
4391;SDS011;2210;51.938;8.488;2023-02-23T21:26:03;14.30;;;4.30;;
4391;SDS011;2210;51.938;8.488;2023-02-23T21:30:13;18.77;;;5.63;;
4391;SDS011;2210;51.938;8.488;2023-02-23T21:34:18;12.77;;;4.13;;
4391;SDS011;2210;51.938;8.488;2023-02-23T21:38:18;12.53;;;4.43;;
4391;SDS011;2210;51.938;8.488;2023-02-23T21:42:18;14.40;;;4.40;;
4391;SDS011;2210;51.938;8.488;2023-02-23T21:46:23;10.37;;;4.60;;
4391;SDS011;2210;51.938;8.488;2023-02-23T21:50:27;13.03;;;3.93;;
4391;SDS011;2210;51.938;8.488;2023-02-23T21:54:31;14.63;;;4.07;;
4391;SDS011;2210;51.938;8.488;2023-02-23T21:58:48;8.70;;;3.33;;
4391;SDS011;2210;51.938;8.488;2023-02-23T22:02:50;14.13;;;4.60;;
4391;SDS011;2210;51.938;8.488;2023-02-23T22:06:54;16.27;;;4.60;;
4391;SDS011;2210;51.938;8.488;2023-02-23T22:11:04;13.43;;;4.40;;
4391;SDS011;2210;51.938;8.488;2023-02-23T22:15:11;13.27;;;4.10;;
4391;SDS011;2210;51.938;8.488;2023-02-23T22:19:20;13.60;;;4.50;;
4391;SDS011;2210;51.938;8.488;2023-02-23T22:23:24;14.50;;;4.57;;
4391;SDS011;2210;51.938;8.488;2023-02-23T22:27:29;9.87;;;3.87;;
4391;SDS011;2210;51.938;8.488;2023-02-23T22:31:30;8.80;;;3.90;;
4391;SDS011;2210;51.938;8.488;2023-02-23T22:35:31;13.20;;;4.20;;
4391;SDS011;2210;51.938;8.488;2023-02-23T22:39:34;16.00;;;4.80;;
4391;SDS011;2210;51.938;8.488;2023-02-23T22:43:45;14.17;;;4.20;;
4391;SDS011;2210;51.938;8.488;2023-02-23T22:47:45;13.50;;;4.10;;
4391;SDS011;2210;51.938;8.488;2023-02-23T22:51:45;12.30;;;3.58;;
4391;SDS011;2210;51.938;8.488;2023-02-23T22:56:01;12.93;;;4.50;;
4391;SDS011;2210;51.938;8.488;2023-02-23T23:00:07;16.37;;;4.73;;
4391;SDS011;2210;51.938;8.488;2023-02-23T23:04:15;15.73;;;3.73;;
4391;SDS011;2210;51.938;8.488;2023-02-23T23:08:19;11.20;;;3.53;;
4391;SDS011;2210;51.938;8.488;2023-02-23T23:12:19;16.33;;;3.97;;
4391;SDS011;2210;51.938;8.488;2023-02-23T23:16:20;9.77;;;3.47;;
4391;SDS011;2210;51.938;8.488;2023-02-23T23:20:22;12.20;;;3.63;;
4391;SDS011;2210;51.938;8.488;2023-02-23T23:24:24;15.83;;;3.43;;
4391;SDS011;2210;51.938;8.488;2023-02-23T23:28:24;13.07;;;3.40;;
4391;SDS011;2210;51.938;8.488;2023-02-23T23:32:27;16.30;;;4.90;;
4391;SDS011;2210;51.938;8.488;2023-02-23T23:36:43;12.20;;;4.57;;
4391;SDS011;2210;51.938;8.488;2023-02-23T23:40:51;13.63;;;4.40;;
4391;SDS011;2210;51.938;8.488;2023-02-23T23:44:52;13.73;;;3.57;;
4391;SDS011;2210;51.938;8.488;2023-02-23T23:49:06;8.70;;;3.20;;
4391;SDS011;2210;51.938;8.488;2023-02-23T23:53:16;11.40;;;3.53;;
4391;SDS011;2210;51.938;8.488;2023-02-23T23:57:22;12.30;;;3.70;;
